Archival Weather

Snohomish County (Paine Fld)

Everett, Washington (KPAE)

Report from: Friday, November 10, 2023 12:53 AM PST
Current time: Sunday, June 16, 2024 11:16 PM PDT

Current weather – Weather history – Daily summaries
Weather forecast

Temperature8.3°C (46.9°F)
Wind chill6.1°C (43.0°F)
Dew point6.1°C (43.0°F)
Winds 7 kts (3.6 m/s, 8.1 mph) South (190°)
Visibility10 mi. (16.1 km)
Clouds Ceiling: Overcast 1,000 ft. (305 m)
Altimeter30.07 in.Hg (1018 mB)
Relative humidity86 %
Density altitude-842 ft. (-257 m)
Sea-level pressure101.8 kPa (1018 mB, 30.07 in.Hg)
Remarks Fully automated report
Automated weather observing station with precipitation discriminator
Pressure rising more quickly
Flight conditions Marginal Visual Meteorological Conditions
Raw dataKPAE 100853Z AUTO 19007KT 10SM OVC010 08/06 A3007 RMK AO2 SLP184 T00830061 53007
An error has occurred. This application may no longer respond until reloaded. Reload 🗙